sensor_id;sensor_type;location;lat;lon;timestamp;P1;durP1;ratioP1;P2;durP2;ratioP2
8001;SDS011;4046;48.774;8.732;2023-07-30T00:01:56;1.73;;;1.60;;
8001;SDS011;4046;48.774;8.732;2023-07-30T00:04:21;1.60;;;1.50;;
8001;SDS011;4046;48.774;8.732;2023-07-30T00:06:47;1.50;;;1.30;;
8001;SDS011;4046;48.774;8.732;2023-07-30T00:09:13;2.07;;;1.70;;
8001;SDS011;4046;48.774;8.732;2023-07-30T00:11:39;1.57;;;1.47;;
8001;SDS011;4046;48.774;8.732;2023-07-30T00:14:04;1.60;;;1.50;;
8001;SDS011;4046;48.774;8.732;2023-07-30T00:16:30;1.57;;;1.47;;
8001;SDS011;4046;48.774;8.732;2023-07-30T00:18:56;2.67;;;1.30;;
8001;SDS011;4046;48.774;8.732;2023-07-30T00:21:22;1.60;;;1.50;;
8001;SDS011;4046;48.774;8.732;2023-07-30T00:23:47;1.70;;;1.60;;
8001;SDS011;4046;48.774;8.732;2023-07-30T00:26:13;1.43;;;1.30;;
8001;SDS011;4046;48.774;8.732;2023-07-30T00:28:39;1.40;;;1.20;;
8001;SDS011;4046;48.774;8.732;2023-07-30T00:31:05;1.50;;;1.37;;
8001;SDS011;4046;48.774;8.732;2023-07-30T00:33:31;1.60;;;1.23;;
8001;SDS011;4046;48.774;8.732;2023-07-30T00:35:56;1.53;;;1.40;;
8001;SDS011;4046;48.774;8.732;2023-07-30T00:38:22;1.73;;;1.43;;
8001;SDS011;4046;48.774;8.732;2023-07-30T00:40:48;1.93;;;1.60;;
8001;SDS011;4046;48.774;8.732;2023-07-30T00:43:14;2.03;;;1.40;;
8001;SDS011;4046;48.774;8.732;2023-07-30T00:45:40;1.40;;;1.30;;
8001;SDS011;4046;48.774;8.732;2023-07-30T00:48:09;1.37;;;1.27;;
8001;SDS011;4046;48.774;8.732;2023-07-30T00:50:36;1.70;;;1.30;;
8001;SDS011;4046;48.774;8.732;2023-07-30T00:53:03;3.50;;;1.80;;
8001;SDS011;4046;48.774;8.732;2023-07-30T00:55:29;2.20;;;1.50;;
8001;SDS011;4046;48.774;8.732;2023-07-30T00:57:55;1.50;;;1.30;;
8001;SDS011;4046;48.774;8.732;2023-07-30T01:00:22;1.60;;;1.40;;
8001;SDS011;4046;48.774;8.732;2023-07-30T01:02:50;1.60;;;1.30;;
8001;SDS011;4046;48.774;8.732;2023-07-30T01:05:16;1.30;;;1.20;;
8001;SDS011;4046;48.774;8.732;2023-07-30T01:07:43;3.10;;;1.70;;
8001;SDS011;4046;48.774;8.732;2023-07-30T01:10:09;1.83;;;1.20;;
8001;SDS011;4046;48.774;8.732;2023-07-30T01:12:35;2.13;;;1.50;;
8001;SDS011;4046;48.774;8.732;2023-07-30T01:15:02;1.60;;;1.30;;
8001;SDS011;4046;48.774;8.732;2023-07-30T01:17:29;1.40;;;1.20;;
8001;SDS011;4046;48.774;8.732;2023-07-30T01:19:54;2.00;;;1.20;;
8001;SDS011;4046;48.774;8.732;2023-07-30T01:22:21;1.67;;;1.40;;
8001;SDS011;4046;48.774;8.732;2023-07-30T01:24:47;1.40;;;1.20;;
8001;SDS011;4046;48.774;8.732;2023-07-30T01:27:16;2.20;;;1.60;;
8001;SDS011;4046;48.774;8.732;2023-07-30T01:29:55;1.60;;;1.30;;
8001;SDS011;4046;48.774;8.732;2023-07-30T01:32:28;1.50;;;1.10;;
8001;SDS011;4046;48.774;8.732;2023-07-30T01:34:56;1.30;;;1.13;;
8001;SDS011;4046;48.774;8.732;2023-07-30T01:37:22;1.50;;;1.23;;
8001;SDS011;4046;48.774;8.732;2023-07-30T01:39:49;1.70;;;1.40;;
8001;SDS011;4046;48.774;8.732;2023-07-30T01:42:15;2.87;;;1.50;;
8001;SDS011;4046;48.774;8.732;2023-07-30T01:44:41;2.23;;;1.40;;
8001;SDS011;4046;48.774;8.732;2023-07-30T01:47:07;1.53;;;1.43;;
8001;SDS011;4046;48.774;8.732;2023-07-30T01:49:33;1.30;;;1.20;;
8001;SDS011;4046;48.774;8.732;2023-07-30T01:51:59;1.50;;;1.30;;
8001;SDS011;4046;48.774;8.732;2023-07-30T01:54:25;1.50;;;1.20;;
8001;SDS011;4046;48.774;8.732;2023-07-30T01:56:51;1.53;;;1.20;;
8001;SDS011;4046;48.774;8.732;2023-07-30T01:59:18;2.00;;;1.20;;
8001;SDS011;4046;48.774;8.732;2023-07-30T02:01:43;1.30;;;1.10;;
8001;SDS011;4046;48.774;8.732;2023-07-30T02:04:09;1.40;;;1.27;;
8001;SDS011;4046;48.774;8.732;2023-07-30T02:06:35;1.60;;;1.20;;
8001;SDS011;4046;48.774;8.732;2023-07-30T02:09:02;2.00;;;1.27;;
8001;SDS011;4046;48.774;8.732;2023-07-30T02:11:28;1.37;;;1.20;;
8001;SDS011;4046;48.774;8.732;2023-07-30T02:13:53;1.50;;;1.20;;
8001;SDS011;4046;48.774;8.732;2023-07-30T02:16:19;1.40;;;1.30;;
8001;SDS011;4046;48.774;8.732;2023-07-30T02:18:45;1.30;;;1.20;;
8001;SDS011;4046;48.774;8.732;2023-07-30T02:21:12;1.30;;;1.03;;
8001;SDS011;4046;48.774;8.732;2023-07-30T02:23:38;1.90;;;1.13;;
8001;SDS011;4046;48.774;8.732;2023-07-30T02:26:03;1.50;;;1.30;;
8001;SDS011;4046;48.774;8.732;2023-07-30T02:28:29;2.43;;;1.20;;
8001;SDS011;4046;48.774;8.732;2023-07-30T02:30:55;1.40;;;1.30;;
8001;SDS011;4046;48.774;8.732;2023-07-30T02:33:21;1.40;;;1.20;;
8001;SDS011;4046;48.774;8.732;2023-07-30T02:35:47;1.40;;;1.27;;
8001;SDS011;4046;48.774;8.732;2023-07-30T02:38:12;1.40;;;0.90;;
8001;SDS011;4046;48.774;8.732;2023-07-30T02:40:38;1.40;;;1.00;;
8001;SDS011;4046;48.774;8.732;2023-07-30T02:43:03;1.30;;;1.00;;
8001;SDS011;4046;48.774;8.732;2023-07-30T02:45:30;1.87;;;1.27;;
8001;SDS011;4046;48.774;8.732;2023-07-30T02:47:55;1.30;;;1.10;;
8001;SDS011;4046;48.774;8.732;2023-07-30T02:50:21;1.20;;;1.00;;
8001;SDS011;4046;48.774;8.732;2023-07-30T02:52:47;1.30;;;1.03;;
8001;SDS011;4046;48.774;8.732;2023-07-30T02:55:13;1.40;;;1.10;;
8001;SDS011;4046;48.774;8.732;2023-07-30T02:57:39;1.37;;;1.10;;
8001;SDS011;4046;48.774;8.732;2023-07-30T03:00:04;1.50;;;1.20;;
8001;SDS011;4046;48.774;8.732;2023-07-30T03:02:31;1.30;;;1.03;;
8001;SDS011;4046;48.774;8.732;2023-07-30T03:04:56;1.40;;;1.10;;
8001;SDS011;4046;48.774;8.732;2023-07-30T03:07:22;1.50;;;1.00;;
8001;SDS011;4046;48.774;8.732;2023-07-30T03:09:48;1.30;;;1.10;;
8001;SDS011;4046;48.774;8.732;2023-07-30T03:12:14;1.50;;;0.90;;
8001;SDS011;4046;48.774;8.732;2023-07-30T03:14:40;1.87;;;1.00;;
8001;SDS011;4046;48.774;8.732;2023-07-30T03:17:05;1.90;;;1.00;;
8001;SDS011;4046;48.774;8.732;2023-07-30T03:19:31;1.30;;;0.90;;
8001;SDS011;4046;48.774;8.732;2023-07-30T03:21:57;1.80;;;1.00;;
8001;SDS011;4046;48.774;8.732;2023-07-30T03:24:23;1.70;;;1.10;;
8001;SDS011;4046;48.774;8.732;2023-07-30T03:26:49;1.40;;;1.20;;
8001;SDS011;4046;48.774;8.732;2023-07-30T03:29:15;2.23;;;1.03;;
8001;SDS011;4046;48.774;8.732;2023-07-30T03:31:40;2.70;;;1.20;;
8001;SDS011;4046;48.774;8.732;2023-07-30T03:34:06;1.30;;;1.00;;
8001;SDS011;4046;48.774;8.732;2023-07-30T03:36:32;1.20;;;0.83;;
8001;SDS011;4046;48.774;8.732;2023-07-30T03:38:58;1.60;;;1.00;;
8001;SDS011;4046;48.774;8.732;2023-07-30T03:41:24;1.40;;;1.10;;
8001;SDS011;4046;48.774;8.732;2023-07-30T03:43:50;1.40;;;1.10;;
8001;SDS011;4046;48.774;8.732;2023-07-30T03:46:16;1.77;;;0.97;;
8001;SDS011;4046;48.774;8.732;2023-07-30T03:48:42;1.40;;;1.10;;
8001;SDS011;4046;48.774;8.732;2023-07-30T03:51:08;1.90;;;1.30;;
8001;SDS011;4046;48.774;8.732;2023-07-30T03:53:34;1.70;;;1.20;;
8001;SDS011;4046;48.774;8.732;2023-07-30T03:56:00;1.30;;;1.17;;
8001;SDS011;4046;48.774;8.732;2023-07-30T03:58:27;1.30;;;0.83;;
8001;SDS011;4046;48.774;8.732;2023-07-30T04:00:53;1.33;;;0.90;;
8001;SDS011;4046;48.774;8.732;2023-07-30T04:03:18;1.20;;;0.97;;
8001;SDS011;4046;48.774;8.732;2023-07-30T04:05:44;1.40;;;1.10;;
8001;SDS011;4046;48.774;8.732;2023-07-30T04:08:10;1.30;;;1.10;;
8001;SDS011;4046;48.774;8.732;2023-07-30T04:10:36;1.27;;;1.00;;
8001;SDS011;4046;48.774;8.732;2023-07-30T04:13:01;3.47;;;1.10;;
8001;SDS011;4046;48.774;8.732;2023-07-30T04:15:27;1.30;;;1.03;;
8001;SDS011;4046;48.774;8.732;2023-07-30T04:17:53;1.30;;;1.00;;
8001;SDS011;4046;48.774;8.732;2023-07-30T04:20:19;1.40;;;1.07;;
8001;SDS011;4046;48.774;8.732;2023-07-30T04:22:45;2.27;;;1.00;;
8001;SDS011;4046;48.774;8.732;2023-07-30T04:25:11;1.30;;;0.90;;
8001;SDS011;4046;48.774;8.732;2023-07-30T04:27:36;1.20;;;1.00;;
8001;SDS011;4046;48.774;8.732;2023-07-30T04:30:04;1.63;;;1.13;;
8001;SDS011;4046;48.774;8.732;2023-07-30T04:32:30;1.30;;;1.07;;
8001;SDS011;4046;48.774;8.732;2023-07-30T04:34:56;1.30;;;1.00;;
8001;SDS011;4046;48.774;8.732;2023-07-30T04:37:22;1.40;;;1.10;;
8001;SDS011;4046;48.774;8.732;2023-07-30T04:39:48;1.33;;;1.00;;
8001;SDS011;4046;48.774;8.732;2023-07-30T04:42:14;1.40;;;1.10;;
8001;SDS011;4046;48.774;8.732;2023-07-30T04:44:40;1.23;;;0.80;;
8001;SDS011;4046;48.774;8.732;2023-07-30T04:47:06;1.70;;;1.03;;
8001;SDS011;4046;48.774;8.732;2023-07-30T04:49:32;1.23;;;1.00;;
8001;SDS011;4046;48.774;8.732;2023-07-30T04:51:58;1.30;;;1.00;;
8001;SDS011;4046;48.774;8.732;2023-07-30T04:54:24;1.20;;;0.90;;
8001;SDS011;4046;48.774;8.732;2023-07-30T04:56:50;1.40;;;1.10;;
8001;SDS011;4046;48.774;8.732;2023-07-30T04:59:16;1.20;;;0.80;;
8001;SDS011;4046;48.774;8.732;2023-07-30T05:01:41;1.30;;;1.00;;
8001;SDS011;4046;48.774;8.732;2023-07-30T05:04:07;1.30;;;0.97;;
8001;SDS011;4046;48.774;8.732;2023-07-30T05:06:33;1.30;;;1.00;;
8001;SDS011;4046;48.774;8.732;2023-07-30T05:08:59;1.57;;;1.07;;
8001;SDS011;4046;48.774;8.732;2023-07-30T05:11:24;1.20;;;0.90;;
8001;SDS011;4046;48.774;8.732;2023-07-30T05:13:50;1.30;;;1.00;;
8001;SDS011;4046;48.774;8.732;2023-07-30T05:16:16;1.30;;;0.97;;
8001;SDS011;4046;48.774;8.732;2023-07-30T05:18:41;1.30;;;0.83;;
8001;SDS011;4046;48.774;8.732;2023-07-30T05:21:07;1.20;;;0.80;;
8001;SDS011;4046;48.774;8.732;2023-07-30T05:23:33;1.27;;;1.03;;
8001;SDS011;4046;48.774;8.732;2023-07-30T05:25:58;1.30;;;0.90;;
8001;SDS011;4046;48.774;8.732;2023-07-30T05:28:24;1.70;;;1.03;;
8001;SDS011;4046;48.774;8.732;2023-07-30T05:30:51;1.70;;;0.97;;
8001;SDS011;4046;48.774;8.732;2023-07-30T05:33:16;1.30;;;1.00;;
8001;SDS011;4046;48.774;8.732;2023-07-30T05:35:42;1.30;;;0.90;;
8001;SDS011;4046;48.774;8.732;2023-07-30T05:38:08;1.27;;;1.03;;
8001;SDS011;4046;48.774;8.732;2023-07-30T05:40:35;1.40;;;0.87;;
8001;SDS011;4046;48.774;8.732;2023-07-30T05:43:01;1.30;;;0.90;;
8001;SDS011;4046;48.774;8.732;2023-07-30T05:45:26;1.20;;;0.90;;
8001;SDS011;4046;48.774;8.732;2023-07-30T05:47:52;1.30;;;1.00;;
8001;SDS011;4046;48.774;8.732;2023-07-30T05:50:18;1.23;;;0.80;;
8001;SDS011;4046;48.774;8.732;2023-07-30T05:52:44;1.20;;;0.80;;
8001;SDS011;4046;48.774;8.732;2023-07-30T05:55:09;2.17;;;1.10;;
8001;SDS011;4046;48.774;8.732;2023-07-30T05:57:36;1.30;;;0.90;;
8001;SDS011;4046;48.774;8.732;2023-07-30T06:00:02;1.23;;;0.97;;
8001;SDS011;4046;48.774;8.732;2023-07-30T06:02:28;1.43;;;0.93;;
8001;SDS011;4046;48.774;8.732;2023-07-30T06:04:53;1.27;;;0.97;;
8001;SDS011;4046;48.774;8.732;2023-07-30T06:07:19;1.30;;;1.07;;
8001;SDS011;4046;48.774;8.732;2023-07-30T06:09:45;1.50;;;1.40;;
8001;SDS011;4046;48.774;8.732;2023-07-30T06:12:11;1.30;;;1.00;;
8001;SDS011;4046;48.774;8.732;2023-07-30T06:14:36;1.30;;;0.93;;
8001;SDS011;4046;48.774;8.732;2023-07-30T06:17:02;1.50;;;1.00;;
8001;SDS011;4046;48.774;8.732;2023-07-30T06:19:28;1.50;;;0.90;;
8001;SDS011;4046;48.774;8.732;2023-07-30T06:21:54;1.40;;;1.00;;
8001;SDS011;4046;48.774;8.732;2023-07-30T06:24:20;1.50;;;0.80;;
8001;SDS011;4046;48.774;8.732;2023-07-30T06:26:45;1.80;;;1.10;;
8001;SDS011;4046;48.774;8.732;2023-07-30T06:29:11;1.67;;;1.10;;
8001;SDS011;4046;48.774;8.732;2023-07-30T06:31:37;1.77;;;1.00;;
8001;SDS011;4046;48.774;8.732;2023-07-30T06:34:03;1.20;;;0.90;;
8001;SDS011;4046;48.774;8.732;2023-07-30T06:36:28;1.40;;;0.90;;
8001;SDS011;4046;48.774;8.732;2023-07-30T06:38:54;1.27;;;0.90;;
8001;SDS011;4046;48.774;8.732;2023-07-30T06:41:20;1.30;;;1.00;;
8001;SDS011;4046;48.774;8.732;2023-07-30T06:43:46;1.93;;;0.90;;
8001;SDS011;4046;48.774;8.732;2023-07-30T06:46:12;1.40;;;0.90;;
8001;SDS011;4046;48.774;8.732;2023-07-30T06:48:38;1.30;;;1.00;;
8001;SDS011;4046;48.774;8.732;2023-07-30T06:51:05;2.00;;;0.93;;
8001;SDS011;4046;48.774;8.732;2023-07-30T06:53:32;1.20;;;0.87;;
8001;SDS011;4046;48.774;8.732;2023-07-30T06:55:57;1.30;;;0.90;;
8001;SDS011;4046;48.774;8.732;2023-07-30T06:58:23;1.23;;;0.80;;
8001;SDS011;4046;48.774;8.732;2023-07-30T07:00:49;1.57;;;1.20;;
8001;SDS011;4046;48.774;8.732;2023-07-30T07:03:15;1.30;;;1.00;;
8001;SDS011;4046;48.774;8.732;2023-07-30T07:05:40;1.30;;;1.00;;
8001;SDS011;4046;48.774;8.732;2023-07-30T07:08:06;1.40;;;0.90;;
8001;SDS011;4046;48.774;8.732;2023-07-30T07:10:32;1.20;;;0.90;;
8001;SDS011;4046;48.774;8.732;2023-07-30T07:12:58;1.43;;;1.00;;
8001;SDS011;4046;48.774;8.732;2023-07-30T07:15:23;1.20;;;0.83;;
8001;SDS011;4046;48.774;8.732;2023-07-30T07:17:49;1.30;;;1.00;;
8001;SDS011;4046;48.774;8.732;2023-07-30T07:20:15;1.93;;;0.90;;
8001;SDS011;4046;48.774;8.732;2023-07-30T07:22:41;1.23;;;0.97;;
8001;SDS011;4046;48.774;8.732;2023-07-30T07:25:07;1.20;;;0.90;;
8001;SDS011;4046;48.774;8.732;2023-07-30T07:27:33;1.20;;;1.00;;
8001;SDS011;4046;48.774;8.732;2023-07-30T07:29:59;1.50;;;0.90;;
8001;SDS011;4046;48.774;8.732;2023-07-30T07:32:25;1.60;;;1.20;;
8001;SDS011;4046;48.774;8.732;2023-07-30T07:34:50;1.20;;;0.90;;
8001;SDS011;4046;48.774;8.732;2023-07-30T07:37:16;1.30;;;0.90;;
8001;SDS011;4046;48.774;8.732;2023-07-30T07:39:44;1.20;;;0.90;;
8001;SDS011;4046;48.774;8.732;2023-07-30T07:42:11;1.90;;;1.00;;
8001;SDS011;4046;48.774;8.732;2023-07-30T07:44:37;1.20;;;0.90;;
8001;SDS011;4046;48.774;8.732;2023-07-30T07:47:03;1.30;;;0.90;;
8001;SDS011;4046;48.774;8.732;2023-07-30T07:49:29;1.40;;;1.00;;
8001;SDS011;4046;48.774;8.732;2023-07-30T07:51:54;1.30;;;1.00;;
8001;SDS011;4046;48.774;8.732;2023-07-30T07:54:20;1.20;;;0.90;;
8001;SDS011;4046;48.774;8.732;2023-07-30T07:56:47;1.20;;;0.90;;
8001;SDS011;4046;48.774;8.732;2023-07-30T07:59:13;1.20;;;0.90;;
8001;SDS011;4046;48.774;8.732;2023-07-30T08:01:38;1.20;;;0.90;;
8001;SDS011;4046;48.774;8.732;2023-07-30T08:04:04;1.60;;;1.17;;
8001;SDS011;4046;48.774;8.732;2023-07-30T08:06:32;1.40;;;1.10;;
8001;SDS011;4046;48.774;8.732;2023-07-30T08:08:58;1.50;;;0.93;;
8001;SDS011;4046;48.774;8.732;2023-07-30T08:11:24;1.30;;;1.00;;
8001;SDS011;4046;48.774;8.732;2023-07-30T08:13:50;1.27;;;0.80;;
8001;SDS011;4046;48.774;8.732;2023-07-30T08:16:17;1.90;;;1.00;;
8001;SDS011;4046;48.774;8.732;2023-07-30T08:18:43;1.40;;;0.90;;
8001;SDS011;4046;48.774;8.732;2023-07-30T08:21:08;1.20;;;1.00;;
8001;SDS011;4046;48.774;8.732;2023-07-30T08:23:34;1.20;;;0.90;;
8001;SDS011;4046;48.774;8.732;2023-07-30T08:26:00;1.23;;;0.90;;
8001;SDS011;4046;48.774;8.732;2023-07-30T08:28:26;1.30;;;1.00;;
8001;SDS011;4046;48.774;8.732;2023-07-30T08:30:51;1.20;;;0.80;;
8001;SDS011;4046;48.774;8.732;2023-07-30T08:33:17;1.30;;;1.00;;
8001;SDS011;4046;48.774;8.732;2023-07-30T08:35:43;1.17;;;0.80;;
8001;SDS011;4046;48.774;8.732;2023-07-30T08:38:09;1.30;;;1.10;;
8001;SDS011;4046;48.774;8.732;2023-07-30T08:40:34;1.30;;;1.10;;
8001;SDS011;4046;48.774;8.732;2023-07-30T08:43:00;1.20;;;1.00;;
8001;SDS011;4046;48.774;8.732;2023-07-30T08:45:28;1.30;;;1.00;;
8001;SDS011;4046;48.774;8.732;2023-07-30T08:47:54;1.20;;;1.00;;
8001;SDS011;4046;48.774;8.732;2023-07-30T08:50:20;1.30;;;1.10;;
8001;SDS011;4046;48.774;8.732;2023-07-30T08:52:45;1.20;;;0.90;;
8001;SDS011;4046;48.774;8.732;2023-07-30T08:55:13;1.20;;;0.93;;
8001;SDS011;4046;48.774;8.732;2023-07-30T08:57:40;1.30;;;1.00;;
8001;SDS011;4046;48.774;8.732;2023-07-30T09:00:08;1.20;;;0.90;;
8001;SDS011;4046;48.774;8.732;2023-07-30T09:02:43;1.23;;;1.00;;
8001;SDS011;4046;48.774;8.732;2023-07-30T09:05:13;1.20;;;0.97;;
8001;SDS011;4046;48.774;8.732;2023-07-30T09:07:39;1.27;;;1.00;;
8001;SDS011;4046;48.774;8.732;2023-07-30T09:10:05;1.30;;;0.83;;
8001;SDS011;4046;48.774;8.732;2023-07-30T09:12:32;1.20;;;0.87;;
8001;SDS011;4046;48.774;8.732;2023-07-30T09:14:58;1.30;;;1.07;;
8001;SDS011;4046;48.774;8.732;2023-07-30T09:17:25;1.30;;;1.00;;
8001;SDS011;4046;48.774;8.732;2023-07-30T09:19:51;1.30;;;1.00;;
8001;SDS011;4046;48.774;8.732;2023-07-30T09:22:24;1.60;;;1.10;;
8001;SDS011;4046;48.774;8.732;2023-07-30T09:24:51;1.20;;;1.00;;
8001;SDS011;4046;48.774;8.732;2023-07-30T09:27:19;1.30;;;1.00;;
8001;SDS011;4046;48.774;8.732;2023-07-30T09:29:51;1.30;;;0.97;;
8001;SDS011;4046;48.774;8.732;2023-07-30T09:32:18;1.40;;;1.10;;
8001;SDS011;4046;48.774;8.732;2023-07-30T09:34:44;1.40;;;1.13;;
8001;SDS011;4046;48.774;8.732;2023-07-30T09:37:10;1.50;;;1.10;;
8001;SDS011;4046;48.774;8.732;2023-07-30T09:39:37;1.90;;;1.30;;
8001;SDS011;4046;48.774;8.732;2023-07-30T09:42:03;1.73;;;1.10;;
8001;SDS011;4046;48.774;8.732;2023-07-30T09:44:31;1.37;;;1.27;;
8001;SDS011;4046;48.774;8.732;2023-07-30T09:47:00;1.20;;;1.00;;
8001;SDS011;4046;48.774;8.732;2023-07-30T09:49:30;1.43;;;1.30;;
8001;SDS011;4046;48.774;8.732;2023-07-30T09:51:59;1.23;;;1.00;;
8001;SDS011;4046;48.774;8.732;2023-07-30T09:54:26;1.30;;;1.07;;
8001;SDS011;4046;48.774;8.732;2023-07-30T09:56:52;1.30;;;1.03;;
8001;SDS011;4046;48.774;8.732;2023-07-30T09:59:18;1.40;;;1.00;;
8001;SDS011;4046;48.774;8.732;2023-07-30T10:01:44;1.57;;;1.10;;
8001;SDS011;4046;48.774;8.732;2023-07-30T10:04:14;1.80;;;1.10;;
8001;SDS011;4046;48.774;8.732;2023-07-30T10:06:42;1.27;;;1.03;;
8001;SDS011;4046;48.774;8.732;2023-07-30T10:09:16;1.40;;;1.23;;
8001;SDS011;4046;48.774;8.732;2023-07-30T10:11:44;1.23;;;0.93;;
8001;SDS011;4046;48.774;8.732;2023-07-30T10:14:11;1.20;;;1.00;;
8001;SDS011;4046;48.774;8.732;2023-07-30T10:16:38;1.23;;;1.00;;
8001;SDS011;4046;48.774;8.732;2023-07-30T10:19:04;1.20;;;0.90;;
8001;SDS011;4046;48.774;8.732;2023-07-30T10:21:31;1.40;;;1.00;;
8001;SDS011;4046;48.774;8.732;2023-07-30T10:24:01;1.70;;;1.40;;
8001;SDS011;4046;48.774;8.732;2023-07-30T10:26:32;1.40;;;1.13;;
8001;SDS011;4046;48.774;8.732;2023-07-30T10:29:18;1.80;;;1.47;;
8001;SDS011;4046;48.774;8.732;2023-07-30T10:31:49;1.30;;;1.17;;
8001;SDS011;4046;48.774;8.732;2023-07-30T10:34:18;1.40;;;1.30;;
8001;SDS011;4046;48.774;8.732;2023-07-30T10:36:45;1.50;;;1.20;;
8001;SDS011;4046;48.774;8.732;2023-07-30T10:39:13;1.40;;;1.30;;
8001;SDS011;4046;48.774;8.732;2023-07-30T10:41:51;1.97;;;1.40;;
8001;SDS011;4046;48.774;8.732;2023-07-30T10:44:29;1.30;;;1.20;;
8001;SDS011;4046;48.774;8.732;2023-07-30T10:46:57;1.33;;;1.23;;
8001;SDS011;4046;48.774;8.732;2023-07-30T10:49:24;1.40;;;1.20;;
8001;SDS011;4046;48.774;8.732;2023-07-30T10:51:54;1.30;;;1.20;;
8001;SDS011;4046;48.774;8.732;2023-07-30T10:54:22;1.30;;;1.13;;
8001;SDS011;4046;48.774;8.732;2023-07-30T10:56:48;1.30;;;1.10;;
8001;SDS011;4046;48.774;8.732;2023-07-30T10:59:14;1.60;;;1.07;;
8001;SDS011;4046;48.774;8.732;2023-07-30T11:01:41;1.70;;;1.30;;
8001;SDS011;4046;48.774;8.732;2023-07-30T11:04:09;1.50;;;1.40;;
8001;SDS011;4046;48.774;8.732;2023-07-30T11:06:36;1.30;;;1.20;;
8001;SDS011;4046;48.774;8.732;2023-07-30T11:09:02;1.33;;;1.23;;
8001;SDS011;4046;48.774;8.732;2023-07-30T11:11:28;1.40;;;1.20;;
8001;SDS011;4046;48.774;8.732;2023-07-30T11:13:54;1.63;;;1.53;;
8001;SDS011;4046;48.774;8.732;2023-07-30T11:16:20;1.43;;;1.20;;
8001;SDS011;4046;48.774;8.732;2023-07-30T11:18:46;1.33;;;1.10;;
8001;SDS011;4046;48.774;8.732;2023-07-30T11:21:13;1.50;;;1.40;;
8001;SDS011;4046;48.774;8.732;2023-07-30T11:23:42;1.70;;;1.50;;
8001;SDS011;4046;48.774;8.732;2023-07-30T11:26:12;1.53;;;1.43;;
8001;SDS011;4046;48.774;8.732;2023-07-30T11:28:42;1.40;;;1.30;;
8001;SDS011;4046;48.774;8.732;2023-07-30T11:31:09;1.47;;;1.37;;
8001;SDS011;4046;48.774;8.732;2023-07-30T11:33:38;1.53;;;1.43;;
8001;SDS011;4046;48.774;8.732;2023-07-30T11:36:12;1.60;;;1.40;;
8001;SDS011;4046;48.774;8.732;2023-07-30T11:38:44;1.50;;;1.40;;
8001;SDS011;4046;48.774;8.732;2023-07-30T11:41:11;1.60;;;1.50;;
8001;SDS011;4046;48.774;8.732;2023-07-30T11:43:38;1.70;;;1.50;;
8001;SDS011;4046;48.774;8.732;2023-07-30T11:46:07;1.50;;;1.40;;
8001;SDS011;4046;48.774;8.732;2023-07-30T11:48:41;1.50;;;1.20;;
8001;SDS011;4046;48.774;8.732;2023-07-30T11:51:25;1.53;;;1.43;;
8001;SDS011;4046;48.774;8.732;2023-07-30T11:53:54;1.73;;;1.53;;
8001;SDS011;4046;48.774;8.732;2023-07-30T11:58:58;2.10;;;1.37;;
8001;SDS011;4046;48.774;8.732;2023-07-30T12:01:26;1.60;;;1.50;;
8001;SDS011;4046;48.774;8.732;2023-07-30T12:03:58;1.53;;;1.43;;
8001;SDS011;4046;48.774;8.732;2023-07-30T12:06:37;1.50;;;1.40;;
8001;SDS011;4046;48.774;8.732;2023-07-30T12:09:11;2.03;;;1.50;;
8001;SDS011;4046;48.774;8.732;2023-07-30T12:11:47;2.33;;;1.70;;
8001;SDS011;4046;48.774;8.732;2023-07-30T12:14:17;1.40;;;1.30;;
8001;SDS011;4046;48.774;8.732;2023-07-30T12:16:45;1.73;;;1.50;;
8001;SDS011;4046;48.774;8.732;2023-07-30T12:19:11;1.50;;;1.40;;
8001;SDS011;4046;48.774;8.732;2023-07-30T12:21:36;1.50;;;1.40;;
8001;SDS011;4046;48.774;8.732;2023-07-30T12:24:02;1.43;;;1.33;;
8001;SDS011;4046;48.774;8.732;2023-07-30T12:26:28;1.70;;;1.33;;
8001;SDS011;4046;48.774;8.732;2023-07-30T12:28:54;1.40;;;1.30;;
8001;SDS011;4046;48.774;8.732;2023-07-30T12:31:20;1.57;;;1.47;;
8001;SDS011;4046;48.774;8.732;2023-07-30T12:33:46;1.50;;;1.40;;
8001;SDS011;4046;48.774;8.732;2023-07-30T12:36:11;1.40;;;1.30;;
8001;SDS011;4046;48.774;8.732;2023-07-30T12:38:37;1.50;;;1.40;;
8001;SDS011;4046;48.774;8.732;2023-07-30T12:41:03;1.60;;;1.50;;
8001;SDS011;4046;48.774;8.732;2023-07-30T12:43:28;1.73;;;1.60;;
8001;SDS011;4046;48.774;8.732;2023-07-30T12:45:54;1.30;;;1.20;;
8001;SDS011;4046;48.774;8.732;2023-07-30T12:48:20;1.80;;;1.23;;
8001;SDS011;4046;48.774;8.732;2023-07-30T12:50:45;1.73;;;1.50;;
8001;SDS011;4046;48.774;8.732;2023-07-30T12:53:11;1.50;;;1.30;;
8001;SDS011;4046;48.774;8.732;2023-07-30T12:55:37;1.60;;;1.50;;
8001;SDS011;4046;48.774;8.732;2023-07-30T12:58:04;1.40;;;1.30;;
8001;SDS011;4046;48.774;8.732;2023-07-30T13:00:29;1.60;;;1.40;;
8001;SDS011;4046;48.774;8.732;2023-07-30T13:02:55;1.93;;;1.47;;
8001;SDS011;4046;48.774;8.732;2023-07-30T13:05:22;1.73;;;1.63;;
8001;SDS011;4046;48.774;8.732;2023-07-30T13:07:48;1.50;;;1.40;;
8001;SDS011;4046;48.774;8.732;2023-07-30T13:10:14;1.83;;;1.53;;
8001;SDS011;4046;48.774;8.732;2023-07-30T13:12:40;1.60;;;1.40;;
8001;SDS011;4046;48.774;8.732;2023-07-30T13:15:06;1.87;;;1.67;;
8001;SDS011;4046;48.774;8.732;2023-07-30T13:17:32;1.80;;;1.50;;
8001;SDS011;4046;48.774;8.732;2023-07-30T13:19:58;1.70;;;1.60;;
8001;SDS011;4046;48.774;8.732;2023-07-30T13:22:24;1.53;;;1.40;;
8001;SDS011;4046;48.774;8.732;2023-07-30T13:24:50;1.53;;;1.40;;
8001;SDS011;4046;48.774;8.732;2023-07-30T13:27:17;1.63;;;1.53;;
8001;SDS011;4046;48.774;8.732;2023-07-30T13:29:43;1.30;;;1.10;;
8001;SDS011;4046;48.774;8.732;2023-07-30T13:32:09;2.00;;;1.80;;
8001;SDS011;4046;48.774;8.732;2023-07-30T13:34:35;1.83;;;1.63;;
8001;SDS011;4046;48.774;8.732;2023-07-30T13:37:01;1.90;;;1.80;;
8001;SDS011;4046;48.774;8.732;2023-07-30T13:39:27;1.63;;;1.30;;
8001;SDS011;4046;48.774;8.732;2023-07-30T13:41:53;1.60;;;1.50;;
8001;SDS011;4046;48.774;8.732;2023-07-30T13:44:19;2.03;;;1.83;;
8001;SDS011;4046;48.774;8.732;2023-07-30T13:46:45;2.10;;;1.40;;
8001;SDS011;4046;48.774;8.732;2023-07-30T13:49:11;1.77;;;1.67;;
8001;SDS011;4046;48.774;8.732;2023-07-30T13:51:36;2.80;;;1.60;;
8001;SDS011;4046;48.774;8.732;2023-07-30T13:54:02;1.67;;;1.57;;
8001;SDS011;4046;48.774;8.732;2023-07-30T13:56:28;1.97;;;1.63;;
8001;SDS011;4046;48.774;8.732;2023-07-30T13:58:54;1.50;;;1.37;;
8001;SDS011;4046;48.774;8.732;2023-07-30T14:01:21;1.70;;;1.60;;
8001;SDS011;4046;48.774;8.732;2023-07-30T14:03:46;1.50;;;1.40;;
8001;SDS011;4046;48.774;8.732;2023-07-30T14:06:12;2.07;;;1.53;;
8001;SDS011;4046;48.774;8.732;2023-07-30T14:08:38;1.60;;;1.50;;
8001;SDS011;4046;48.774;8.732;2023-07-30T14:11:04;1.70;;;1.60;;
8001;SDS011;4046;48.774;8.732;2023-07-30T14:13:29;1.60;;;1.50;;
8001;SDS011;4046;48.774;8.732;2023-07-30T14:15:55;1.67;;;1.57;;
8001;SDS011;4046;48.774;8.732;2023-07-30T14:18:21;3.30;;;1.60;;
8001;SDS011;4046;48.774;8.732;2023-07-30T14:20:49;1.87;;;1.60;;
8001;SDS011;4046;48.774;8.732;2023-07-30T14:23:15;1.60;;;1.50;;
8001;SDS011;4046;48.774;8.732;2023-07-30T14:25:41;1.70;;;1.60;;
8001;SDS011;4046;48.774;8.732;2023-07-30T14:28:06;1.60;;;1.50;;
8001;SDS011;4046;48.774;8.732;2023-07-30T14:30:32;1.70;;;1.50;;
8001;SDS011;4046;48.774;8.732;2023-07-30T14:32:59;1.57;;;1.43;;
8001;SDS011;4046;48.774;8.732;2023-07-30T14:35:25;1.90;;;1.80;;
8001;SDS011;4046;48.774;8.732;2023-07-30T14:37:51;1.83;;;1.47;;
8001;SDS011;4046;48.774;8.732;2023-07-30T14:40:16;1.50;;;1.40;;
8001;SDS011;4046;48.774;8.732;2023-07-30T14:42:43;1.80;;;1.70;;
8001;SDS011;4046;48.774;8.732;2023-07-30T14:45:08;1.73;;;1.63;;
8001;SDS011;4046;48.774;8.732;2023-07-30T14:47:35;1.60;;;1.50;;
8001;SDS011;4046;48.774;8.732;2023-07-30T14:50:00;1.60;;;1.50;;
8001;SDS011;4046;48.774;8.732;2023-07-30T14:52:27;1.77;;;1.50;;
8001;SDS011;4046;48.774;8.732;2023-07-30T14:54:53;1.50;;;1.30;;
8001;SDS011;4046;48.774;8.732;2023-07-30T14:57:19;1.60;;;1.50;;
8001;SDS011;4046;48.774;8.732;2023-07-30T14:59:44;1.50;;;1.40;;
8001;SDS011;4046;48.774;8.732;2023-07-30T15:02:10;1.60;;;1.50;;
8001;SDS011;4046;48.774;8.732;2023-07-30T15:04:37;1.67;;;1.30;;
8001;SDS011;4046;48.774;8.732;2023-07-30T15:07:04;1.80;;;1.40;;
8001;SDS011;4046;48.774;8.732;2023-07-30T15:09:29;1.60;;;1.50;;
8001;SDS011;4046;48.774;8.732;2023-07-30T15:12:00;1.60;;;1.50;;
8001;SDS011;4046;48.774;8.732;2023-07-30T15:14:26;1.83;;;1.67;;